Time;durP1;ratioP1;P1;durP2;ratioP2;P2;SDS_P1;SDS_P2;PMS_P1;PMS_P2;Temp;Humidity;BMP_temperature;BMP_pressure;BME280_temperature;BME280_humidity;BME280_pressure;Samples;Min_cycle;Max_cycle;Signal;HPM_P1;HPM_P2
2022/07/25 00:01:36;;;;;;;1.08;1.05;;;16.80;37.20;;;;;;5069552;28;20024;-47
2022/07/25 00:04:01;;;;;;;1.85;1.10;;;16.80;37.70;;;;;;5060078;28;20085;-49
2022/07/25 00:06:27;;;;;;;1.60;1.50;;;16.80;36.80;;;;;;5052070;28;20056;-52
2022/07/25 00:08:52;;;;;;;4.00;1.40;;;16.80;36.30;;;;;;5068777;28;20115;-47
2022/07/25 00:11:17;;;;;;;1.88;1.38;;;16.80;36.10;;;;;;5052010;28;20342;-51
2022/07/25 00:13:43;;;;;;;2.05;1.60;;;16.80;36.70;;;;;;5065443;28;20040;-49
2022/07/25 00:16:09;;;;;;;3.28;1.80;;;16.80;36.90;;;;;;5071474;28;20370;-51
2022/07/25 00:18:34;;;;;;;3.40;1.80;;;16.80;37.00;;;;;;5055797;28;20046;-49
2022/07/25 00:21:00;;;;;;;2.92;1.60;;;16.80;36.90;;;;;;5071318;28;20025;-52
2022/07/25 00:23:25;;;;;;;2.80;1.75;;;16.80;36.60;;;;;;5054062;28;20024;-50
2022/07/25 00:25:51;;;;;;;2.72;1.70;;;16.80;36.70;;;;;;5071273;28;20145;-51
2022/07/25 00:28:16;;;;;;;2.20;1.40;;;16.80;36.80;;;;;;5052630;28;20416;-52
2022/07/25 00:30:41;;;;;;;3.03;1.10;;;16.80;36.00;;;;;;5071075;28;20036;-52
2022/07/25 00:33:07;;;;;;;1.65;1.17;;;16.80;36.00;;;;;;5051260;28;20078;-50
2022/07/25 00:35:32;;;;;;;1.63;1.38;;;16.80;37.00;;;;;;5071008;28;20107;-50
2022/07/25 00:37:58;;;;;;;1.80;1.20;;;16.90;36.00;;;;;;5049827;28;20040;-50
2022/07/25 00:40:23;;;;;;;1.55;1.45;;;16.90;36.50;;;;;;5070904;28;20032;-48
2022/07/25 00:42:50;;;;;;;1.80;1.42;;;16.90;36.00;;;;;;5051507;28;20632;-50
2022/07/25 00:45:15;;;;;;;1.63;1.27;;;16.90;35.90;;;;;;5048316;28;20503;-50
2022/07/25 00:47:41;;;;;;;2.08;1.50;;;16.90;36.40;;;;;;5066086;28;20045;-52
2022/07/25 00:50:07;;;;;;;2.42;1.42;;;16.80;36.00;;;;;;5049291;28;20028;-49
2022/07/25 00:52:33;;;;;;;1.00;0.90;;;16.90;36.00;;;;;;5070231;28;20056;-48
2022/07/25 00:54:59;;;;;;;1.88;1.50;;;16.90;36.10;;;;;;5049359;28;20035;-47
2022/07/25 00:57:24;;;;;;;1.63;1.20;;;16.90;35.80;;;;;;5069819;28;20036;-49
2022/07/25 00:59:50;;;;;;;2.17;1.38;;;16.90;35.30;;;;;;5049435;28;20394;-52
2022/07/25 01:02:15;;;;;;;1.55;1.00;;;16.90;35.50;;;;;;5069948;28;20029;-55
2022/07/25 01:04:40;;;;;;;2.22;1.33;;;16.90;35.40;;;;;;5048680;28;20037;-50
2022/07/25 01:07:06;;;;;;;1.98;1.45;;;16.90;35.50;;;;;;5069692;28;20060;-49
2022/07/25 01:09:32;;;;;;;4.10;1.58;;;16.90;36.00;;;;;;5049077;28;20033;-48
2022/07/25 01:11:57;;;;;;;1.98;1.73;;;16.80;36.30;;;;;;5069580;28;20029;-50
2022/07/25 01:14:23;;;;;;;1.67;1.33;;;16.80;36.40;;;;;;5053490;28;20040;-52
2022/07/25 01:16:49;;;;;;;3.42;1.65;;;16.80;36.20;;;;;;5050717;28;20028;-48
2022/07/25 01:19:14;;;;;;;2.00;1.27;;;16.80;36.30;;;;;;5067686;28;20046;-52
2022/07/25 01:21:41;;;;;;;5.10;1.45;;;16.70;35.90;;;;;;5050556;28;20229;-52
2022/07/25 01:24:07;;;;;;;2.42;1.48;;;16.70;36.00;;;;;;5067751;28;20389;-48
2022/07/25 01:26:32;;;;;;;1.45;1.35;;;16.70;36.60;;;;;;5050494;28;20721;-48
2022/07/25 01:28:58;;;;;;;2.00;1.40;;;16.70;36.80;;;;;;5067399;28;20115;-46
2022/07/25 01:31:24;;;;;;;2.67;1.10;;;16.70;36.10;;;;;;5069984;28;20320;-49
2022/07/25 01:33:49;;;;;;;1.83;1.40;;;16.70;36.20;;;;;;5054197;28;20233;-47
2022/07/25 01:36:15;;;;;;;2.50;1.80;;;16.70;36.60;;;;;;5068714;28;20025;-50
2022/07/25 01:38:41;;;;;;;1.65;1.55;;;16.70;36.80;;;;;;5052639;28;20113;-49
2022/07/25 01:41:06;;;;;;;1.38;1.27;;;16.70;36.70;;;;;;5069759;28;20078;-50
2022/07/25 01:43:32;;;;;;;3.25;1.60;;;16.70;36.70;;;;;;5051134;28;20035;-49
2022/07/25 01:45:57;;;;;;;3.50;1.63;;;16.60;37.20;;;;;;5069747;28;20017;-49
2022/07/25 01:48:23;;;;;;;2.53;1.40;;;16.60;37.40;;;;;;5056024;28;20055;-50
2022/07/25 01:50:48;;;;;;;1.30;1.20;;;16.60;37.20;;;;;;5049708;28;20086;-50
2022/07/25 01:53:14;;;;;;;1.98;1.63;;;16.60;37.90;;;;;;5066976;28;20644;-51
2022/07/25 01:55:39;;;;;;;1.83;1.45;;;16.70;37.20;;;;;;5069603;28;20023;-49
2022/07/25 01:58:05;;;;;;;3.15;1.60;;;16.60;36.70;;;;;;5050084;28;20041;-48
2022/07/25 02:00:30;;;;;;;1.67;1.40;;;16.60;37.00;;;;;;5047967;28;20078;-50
2022/07/25 02:05:40;;;;;;;3.00;1.60;;;16.50;38.00;;;;;;5029475;28;20071;-48
2022/07/25 02:08:06;;;;;;;2.22;2.00;;;16.50;38.80;;;;;;5067933;28;20052;-51
2022/07/25 02:10:31;;;;;;;2.35;1.70;;;16.40;39.30;;;;;;5047971;28;20041;-48
2022/07/25 02:12:57;;;;;;;2.05;1.50;;;16.40;39.20;;;;;;5067890;28;20032;-55
2022/07/25 02:15:22;;;;;;;2.83;1.60;;;16.40;39.40;;;;;;5041458;28;20064;-54
2022/07/25 02:17:48;;;;;;;2.45;1.50;;;16.30;39.40;;;;;;5067504;28;20131;-47
2022/07/25 02:20:13;;;;;;;1.40;1.30;;;16.30;40.70;;;;;;5048170;28;20025;-48
2022/07/25 02:22:39;;;;;;;2.05;1.65;;;16.20;40.90;;;;;;5068252;28;20111;-51
2022/07/25 02:25:05;;;;;;;1.90;1.60;;;16.20;40.20;;;;;;5047789;28;20024;-47
2022/07/25 02:27:30;;;;;;;4.90;1.88;;;16.20;40.70;;;;;;5068285;28;20028;-46
2022/07/25 02:29:56;;;;;;;2.05;1.67;;;16.20;40.60;;;;;;5047536;28;20036;-49
2022/07/25 02:32:21;;;;;;;1.88;1.73;;;16.30;39.50;;;;;;5068054;28;20054;-48
2022/07/25 02:34:47;;;;;;;2.45;1.67;;;16.30;40.20;;;;;;5047650;28;20425;-52
2022/07/25 02:37:12;;;;;;;2.47;1.90;;;16.40;39.40;;;;;;5067985;28;20036;-51
2022/07/25 02:39:38;;;;;;;1.65;1.48;;;16.30;39.80;;;;;;5057690;28;20028;-52
2022/07/25 02:42:03;;;;;;;2.13;1.58;;;16.30;39.60;;;;;;5049304;28;20039;-51
2022/07/25 02:44:29;;;;;;;3.28;1.83;;;16.40;39.50;;;;;;5066037;28;20113;-52
2022/07/25 02:46:54;;;;;;;2.65;1.60;;;16.40;39.20;;;;;;5049228;28;20587;-48
2022/07/25 02:49:20;;;;;;;1.83;1.73;;;16.40;39.70;;;;;;5065871;28;20052;-49
2022/07/25 02:51:45;;;;;;;2.80;1.60;;;16.40;39.00;;;;;;5048979;28;20120;-52
2022/07/25 02:54:11;;;;;;;2.35;1.52;;;16.40;38.80;;;;;;5065923;28;20028;-52
2022/07/25 02:56:36;;;;;;;3.50;1.60;;;16.40;38.50;;;;;;5068323;28;20021;-49
2022/07/25 02:59:02;;;;;;;2.13;1.60;;;16.40;39.50;;;;;;5052018;28;20043;-50
2022/07/25 03:01:28;;;;;;;2.92;1.75;;;16.40;39.00;;;;;;5068402;28;20031;-47
2022/07/25 03:03:54;;;;;;;2.00;1.80;;;16.40;38.70;;;;;;5050627;28;20048;-47
2022/07/25 03:06:19;;;;;;;2.08;1.70;;;16.40;38.90;;;;;;5068469;28;20435;-53
2022/07/25 03:08:45;;;;;;;1.92;1.65;;;16.30;39.60;;;;;;5049278;28;20515;-52
2022/07/25 03:11:11;;;;;;;2.40;1.58;;;16.30;38.90;;;;;;5068313;28;20063;-54
2022/07/25 03:13:37;;;;;;;2.17;1.98;;;16.40;38.90;;;;;;5048295;28;20016;-51
2022/07/25 03:16:02;;;;;;;3.00;1.80;;;16.40;38.40;;;;;;5048193;28;20027;-48
2022/07/25 03:18:28;;;;;;;2.00;1.70;;;16.40;38.40;;;;;;5067481;28;20036;-51
2022/07/25 03:20:53;;;;;;;3.20;2.50;;;16.40;38.30;;;;;;5064885;28;20036;-49
2022/07/25 03:23:19;;;;;;;1.65;1.55;;;16.40;38.20;;;;;;5048583;28;20091;-49
2022/07/25 03:25:44;;;;;;;5.28;2.38;;;16.40;37.70;;;;;;5047125;28;20087;-52
2022/07/25 03:28:10;;;;;;;2.63;2.08;;;16.50;37.80;;;;;;5067114;28;20024;-48
2022/07/25 03:30:35;;;;;;;1.90;1.77;;;16.50;38.20;;;;;;5046569;28;20094;-50
2022/07/25 03:33:01;;;;;;;2.35;2.03;;;16.50;37.60;;;;;;5067380;28;20029;-47
2022/07/25 03:35:26;;;;;;;2.72;1.77;;;16.50;37.50;;;;;;5046768;28;20028;-52
2022/07/25 03:37:52;;;;;;;3.78;2.10;;;16.60;37.20;;;;;;5067303;28;20547;-50
2022/07/25 03:40:18;;;;;;;2.17;1.98;;;16.60;37.20;;;;;;5046589;28;20040;-52
2022/07/25 03:42:43;;;;;;;1.70;1.42;;;16.70;36.60;;;;;;5067335;28;20208;-48
2022/07/25 03:45:09;;;;;;;2.85;2.03;;;16.70;36.20;;;;;;5046722;28;20025;-48
2022/07/25 03:47:34;;;;;;;6.00;1.80;;;16.80;36.00;;;;;;5064056;28;20033;-50
2022/07/25 03:50:00;;;;;;;4.22;1.75;;;16.80;36.40;;;;;;5057550;28;20128;-49
2022/07/25 03:52:25;;;;;;;4.93;1.98;;;16.90;35.50;;;;;;5048371;28;20036;-50
2022/07/25 03:54:51;;;;;;;2.72;1.95;;;16.90;35.20;;;;;;5065174;28;20033;-65
2022/07/25 03:57:16;;;;;;;2.22;1.73;;;16.90;35.30;;;;;;5048367;28;20029;-63
2022/07/25 03:59:42;;;;;;;1.90;1.70;;;17.00;34.40;;;;;;5065063;28;20497;-51
2022/07/25 04:02:07;;;;;;;2.33;2.05;;;17.10;34.10;;;;;;5048276;28;20094;-55
2022/07/25 04:04:33;;;;;;;3.78;1.92;;;17.20;34.00;;;;;;5065114;28;20037;-49
2022/07/25 04:06:58;;;;;;;3.25;2.00;;;17.30;33.50;;;;;;5067811;28;20036;-50
2022/07/25 04:09:24;;;;;;;2.85;1.67;;;17.50;32.80;;;;;;5052263;28;20021;-52
2022/07/25 04:11:49;;;;;;;1.70;1.60;;;17.80;32.10;;;;;;5067467;28;20028;-50
2022/07/25 04:14:15;;;;;;;1.88;1.67;;;18.00;31.50;;;;;;5049176;28;20219;-49
2022/07/25 04:16:40;;;;;;;2.42;1.70;;;18.20;31.30;;;;;;5066822;28;20095;-52
2022/07/25 04:19:06;;;;;;;1.90;1.70;;;18.70;30.00;;;;;;5049442;28;20039;-53
2022/07/25 04:21:32;;;;;;;2.03;1.63;;;19.50;28.30;;;;;;5067620;28;20082;-55
2022/07/25 04:23:58;;;;;;;4.43;1.70;;;20.40;26.30;;;;;;5048050;28;20029;-49
2022/07/25 04:26:23;;;;;;;1.65;1.55;;;20.90;25.20;;;;;;5067521;28;20545;-52
2022/07/25 04:28:49;;;;;;;2.08;1.48;;;21.20;24.30;;;;;;5046721;28;20033;-50
2022/07/25 04:31:15;;;;;;;2.63;1.90;;;21.60;23.00;;;;;;5067414;28;20037;-51
2022/07/25 04:33:40;;;;;;;2.25;2.03;;;21.80;21.30;;;;;;5047796;28;20116;-52
2022/07/25 04:36:06;;;;;;;2.20;1.83;;;22.10;19.90;;;;;;5064940;28;20032;-51
2022/07/25 04:38:32;;;;;;;2.67;1.67;;;22.50;20.10;;;;;;5047754;28;20513;-50
2022/07/25 04:40:57;;;;;;;2.33;1.50;;;23.10;19.70;;;;;;5048894;28;20263;-49
2022/07/25 04:43:23;;;;;;;2.25;1.90;;;23.70;19.20;;;;;;5070417;28;20037;-53
2022/07/25 04:45:48;;;;;;;2.00;1.80;;;24.40;17.30;;;;;;5049522;28;20038;-55
2022/07/25 04:48:14;;;;;;;2.75;1.60;;;25.10;15.90;;;;;;5061580;28;20087;-50
2022/07/25 04:50:39;;;;;;;1.40;1.30;;;25.70;14.60;;;;;;5052811;28;20056;-52
2022/07/25 04:53:05;;;;;;;1.90;1.70;;;26.40;13.40;;;;;;5070354;28;20396;-50
2022/07/25 04:55:31;;;;;;;3.58;1.90;;;26.70;12.00;;;;;;5049424;28;20461;-49
2022/07/25 04:57:57;;;;;;;1.60;1.50;;;26.90;10.30;;;;;;5070048;28;20024;-48
2022/07/25 05:00:23;;;;;;;2.25;1.50;;;27.50;9.40;;;;;;5049174;28;20444;-51
2022/07/25 05:02:50;;;;;;;1.85;1.63;;;28.00;8.30;;;;;;5069916;28;20093;-47
2022/07/25 05:05:16;;;;;;;1.95;1.70;;;28.30;7.10;;;;;;5049207;28;20060;-48
2022/07/25 05:07:41;;;;;;;2.17;1.70;;;28.50;6.70;;;;;;5069699;28;20492;-49
2022/07/25 05:10:07;;;;;;;1.98;1.77;;;28.60;5.40;;;;;;5059369;28;20037;-49
2022/07/25 05:12:33;;;;;;;5.18;1.90;;;29.00;4.30;;;;;;5050861;28;20555;-47
2022/07/25 05:14:58;;;;;;;2.40;1.67;;;29.30;2.90;;;;;;5061580;28;20037;-48
2022/07/25 05:17:24;;;;;;;1.90;1.77;;;29.10;2.70;;;;;;5050839;28;20033;-48
2022/07/25 05:19:49;;;;;;;2.03;1.77;;;29.50;2.70;;;;;;5067598;28;20013;-50
2022/07/25 05:22:15;;;;;;;1.83;1.50;;;30.00;1.70;;;;;;5070486;28;20021;-50
2022/07/25 05:24:40;;;;;;;2.08;1.65;;;30.30;1.00;;;;;;5055134;28;20020;-49
2022/07/25 05:27:06;;;;;;;2.75;1.55;;;30.70;1.00;;;;;;5070204;28;20503;-51
2022/07/25 05:29:32;;;;;;;2.33;1.60;;;30.90;1.00;;;;;;5053549;28;20032;-46
2022/07/25 05:31:57;;;;;;;2.13;1.80;;;31.10;1.00;;;;;;5070132;28;20615;-50
2022/07/25 05:34:23;;;;;;;1.90;1.63;;;30.90;1.00;;;;;;5052171;28;20033;-48
2022/07/25 05:36:49;;;;;;;1.98;1.77;;;31.30;1.00;;;;;;5070205;28;20021;-48
2022/07/25 05:39:14;;;;;;;1.80;1.60;;;31.80;1.00;;;;;;5050954;28;20029;-47
2022/07/25 05:41:40;;;;;;;2.30;1.80;;;32.40;1.00;;;;;;5069991;28;20024;-47
2022/07/25 05:44:06;;;;;;;2.83;1.90;;;32.60;1.00;;;;;;5049249;28;20075;-46
2022/07/25 05:46:33;;;;;;;1.90;1.70;;;33.10;1.00;;;;;;5069726;28;20618;-49
2022/07/25 05:48:58;;;;;;;2.38;1.70;;;33.30;1.00;;;;;;5049976;28;20507;-48
2022/07/25 05:51:24;;;;;;;1.85;1.45;;;33.80;1.00;;;;;;5067519;28;20028;-46
2022/07/25 05:53:49;;;;;;;1.90;1.50;;;34.00;1.00;;;;;;5050341;28;20032;-46
2022/07/25 05:56:14;;;;;;;1.90;1.60;;;34.20;1.00;;;;;;5048743;28;20040;-48
2022/07/25 05:58:41;;;;;;;2.10;1.88;;;34.40;1.00;;;;;;5068710;28;20120;-48
2022/07/25 06:01:07;;;;;;;1.77;1.67;;;34.60;1.00;;;;;;5048133;28;20413;-47
2022/07/25 06:03:33;;;;;;;1.90;1.70;;;34.70;1.00;;;;;;5069111;28;20024;-48
2022/07/25 06:05:59;;;;;;;2.22;1.90;;;34.90;1.00;;;;;;5048025;28;20036;-50
2022/07/25 06:08:27;;;;;;;3.35;2.00;;;35.50;1.00;;;;;;5067417;28;20174;-47
2022/07/25 06:10:53;;;;;;;7.57;1.80;;;36.10;1.00;;;;;;5047689;28;20037;-46
2022/07/25 06:13:19;;;;;;;1.80;1.70;;;36.30;1.00;;;;;;5058548;28;20073;-49
2022/07/25 06:15:44;;;;;;;2.10;1.90;;;36.60;1.00;;;;;;5061114;28;20104;-47
2022/07/25 06:18:09;;;;;;;1.42;1.33;;;37.10;1.00;;;;;;5049803;28;20512;-47
2022/07/25 06:20:35;;;;;;;1.98;1.73;;;36.80;1.00;;;;;;5054391;28;20104;-46
2022/07/25 06:23:02;;;;;;;2.13;1.90;;;37.20;1.00;;;;;;5068333;28;20025;-47
2022/07/25 06:25:28;;;;;;;1.70;1.60;;;37.60;1.00;;;;;;5058441;28;20033;-47
2022/07/25 06:27:53;;;;;;;3.03;1.67;;;37.80;1.00;;;;;;5049693;28;20055;-52
2022/07/25 06:30:18;;;;;;;1.60;1.48;;;37.70;1.00;;;;;;5066167;28;20080;-50
2022/07/25 06:32:44;;;;;;;2.20;2.00;;;37.90;1.00;;;;;;5049489;28;20033;-47
2022/07/25 06:35:09;;;;;;;2.20;1.95;;;38.20;1.00;;;;;;5066340;28;20024;-48
2022/07/25 06:37:38;;;;;;;2.97;2.30;;;38.30;1.00;;;;;;5049300;28;20036;-50
2022/07/25 06:40:04;;;;;;;3.42;1.67;;;38.20;1.00;;;;;;5066163;28;20032;-48
2022/07/25 06:42:32;;;;;;;2.35;1.90;;;38.20;1.00;;;;;;5068668;28;20028;-47
2022/07/25 06:44:57;;;;;;;1.88;1.77;;;38.60;1.00;;;;;;5053356;28;20339;-49
2022/07/25 06:47:23;;;;;;;3.35;2.05;;;38.60;1.00;;;;;;5068739;28;20059;-47
2022/07/25 06:49:49;;;;;;;3.13;2.20;;;39.00;1.00;;;;;;5051967;28;20079;-47
2022/07/25 06:52:15;;;;;;;1.80;1.70;;;38.70;1.00;;;;;;5068542;28;20142;-51
2022/07/25 06:54:40;;;;;;;2.42;2.22;;;39.50;1.00;;;;;;5050889;28;20059;-47
2022/07/25 06:57:07;;;;;;;2.30;1.90;;;39.60;1.00;;;;;;5068596;28;20074;-49
2022/07/25 06:59:33;;;;;;;4.75;1.83;;;39.90;1.00;;;;;;5049253;28;20116;-50
2022/07/25 07:01:58;;;;;;;2.10;1.88;;;40.10;1.00;;;;;;5068462;28;20096;-47
2022/07/25 07:04:24;;;;;;;2.70;1.80;;;40.70;1.00;;;;;;5047749;28;20480;-50
2022/07/25 07:06:49;;;;;;;2.90;2.40;;;41.10;1.00;;;;;;5068451;28;20086;-47
2022/07/25 07:09:15;;;;;;;3.72;2.10;;;40.80;1.00;;;;;;5048845;28;20500;-48
2022/07/25 07:11:40;;;;;;;2.42;2.10;;;41.10;1.00;;;;;;5066161;28;20120;-48
2022/07/25 07:14:06;;;;;;;3.13;2.08;;;41.50;1.00;;;;;;5055188;28;20041;-46
2022/07/25 07:16:31;;;;;;;6.38;2.10;;;41.50;1.00;;;;;;5046898;28;20033;-47
2022/07/25 07:18:57;;;;;;;2.65;2.45;;;41.40;1.00;;;;;;5067473;28;20034;-47
2022/07/25 07:21:23;;;;;;;2.53;2.30;;;41.20;1.00;;;;;;5046882;28;20405;-50
2022/07/25 07:23:49;;;;;;;2.45;2.25;;;41.50;1.00;;;;;;5067399;28;20116;-48
2022/07/25 07:26:14;;;;;;;3.38;2.20;;;42.10;1.00;;;;;;5046810;28;20100;-48
2022/07/25 07:28:40;;;;;;;3.63;2.17;;;42.40;1.00;;;;;;5067326;28;20595;-48
2022/07/25 07:31:05;;;;;;;4.05;2.72;;;41.60;1.00;;;;;;5046593;28;20029;-47
2022/07/25 07:33:34;;;;;;;2.67;2.28;;;42.10;1.00;;;;;;5067181;28;20075;-47
2022/07/25 07:36:00;;;;;;;2.60;2.40;;;42.80;1.00;;;;;;5046432;28;20051;-48
2022/07/25 07:38:26;;;;;;;3.53;2.95;;;43.00;1.00;;;;;;5067363;28;20025;-48
2022/07/25 07:40:52;;;;;;;2.70;2.22;;;42.20;1.00;;;;;;5046476;28;20090;-49
2022/07/25 07:43:18;;;;;;;2.10;2.00;;;41.80;1.00;;;;;;5067231;28;20020;-47
2022/07/25 07:45:43;;;;;;;4.60;2.63;;;42.10;1.00;;;;;;5057449;28;20048;-48
2022/07/25 07:48:09;;;;;;;2.40;2.20;;;42.10;1.00;;;;;;5053659;28;20044;-47
2022/07/25 07:50:35;;;;;;;2.67;2.47;;;41.80;1.00;;;;;;5065989;28;20040;-49
2022/07/25 07:53:01;;;;;;;3.05;2.40;;;42.10;1.00;;;;;;5048324;28;20044;-47
2022/07/25 07:55:47;;;;;;;2.65;2.20;;;41.90;1.00;;;;;;5065236;28;20094;-47
2022/07/25 07:58:15;;;;;;;2.58;2.38;;;42.00;1.00;;;;;;5027916;28;20486;-48
2022/07/25 08:00:43;;;;;;;3.38;2.45;;;42.10;1.00;;;;;;5065086;28;20043;-48
2022/07/25 08:03:08;;;;;;;4.07;2.33;;;41.50;1.00;;;;;;5048064;28;20029;-49
2022/07/25 08:05:40;;;;;;;3.00;2.70;;;41.90;1.00;;;;;;5065124;28;20029;-49
2022/07/25 08:08:07;;;;;;;3.22;2.92;;;42.30;1.00;;;;;;5027926;28;20092;-48
2022/07/25 08:10:35;;;;;;;2.58;2.38;;;42.10;1.00;;;;;;5064924;28;20056;-48
2022/07/25 08:13:10;;;;;;;3.00;2.53;;;41.80;1.00;;;;;;5048383;28;20471;-48
2022/07/25 08:15:35;;;;;;;2.53;2.22;;;41.60;1.00;;;;;;5067767;28;20043;-47
2022/07/25 08:18:01;;;;;;;2.92;2.70;;;41.10;1.00;;;;;;5052269;28;20350;-49
2022/07/25 08:20:26;;;;;;;3.58;2.75;;;40.60;1.00;;;;;;5068789;28;20036;-47
2022/07/25 08:22:52;;;;;;;3.33;2.60;;;39.80;1.00;;;;;;5071407;28;20021;-47
2022/07/25 08:25:19;;;;;;;3.80;2.63;;;40.00;1.00;;;;;;5056258;28;20025;-48
2022/07/25 08:27:45;;;;;;;3.28;2.65;;;40.50;1.00;;;;;;5071295;28;20021;-48
2022/07/25 08:30:12;;;;;;;2.80;2.60;;;40.10;1.00;;;;;;5054986;28;20381;-48
2022/07/25 08:32:49;;;;;;;2.60;2.40;;;39.60;1.00;;;;;;5071202;28;20047;-46
2022/07/25 08:35:16;;;;;;;2.58;2.38;;;39.80;1.00;;;;;;5055033;28;20016;-46
2022/07/25 08:37:41;;;;;;;3.53;2.10;;;40.20;1.00;;;;;;5071097;28;20103;-49
2022/07/25 08:40:08;;;;;;;2.35;2.15;;;40.50;1.00;;;;;;5053887;28;20326;-49
2022/07/25 08:42:33;;;;;;;3.17;2.72;;;40.70;1.00;;;;;;5071251;28;20119;-46
2022/07/25 08:45:03;;;;;;;4.88;2.63;;;40.30;1.00;;;;;;5052912;28;20544;-47
2022/07/25 08:47:29;;;;;;;5.15;2.72;;;39.70;1.00;;;;;;5070592;28;20089;-46
2022/07/25 08:49:55;;;;;;;3.58;3.10;;;38.80;1.00;;;;;;5051297;28;20029;-46
2022/07/25 08:52:22;;;;;;;2.70;2.50;;;38.00;1.00;;;;;;5070811;28;20439;-50
2022/07/25 08:54:49;;;;;;;3.03;2.75;;;38.30;1.00;;;;;;5050531;28;20451;-47
2022/07/25 08:57:16;;;;;;;4.70;2.95;;;38.10;1.00;;;;;;5071101;28;20021;-47
2022/07/25 08:59:42;;;;;;;3.50;3.20;;;38.00;1.00;;;;;;5049295;28;20060;-51
2022/07/25 09:02:11;;;;;;;3.03;2.83;;;37.80;1.00;;;;;;5070698;28;20058;-47
2022/07/25 09:04:37;;;;;;;3.35;3.05;;;37.70;1.00;;;;;;5050489;28;20029;-50
2022/07/25 09:07:03;;;;;;;4.07;3.17;;;37.70;1.00;;;;;;5068399;28;20025;-48
2022/07/25 09:09:37;;;;;;;4.47;3.42;;;37.80;1.00;;;;;;5050932;28;20041;-50
2022/07/25 09:12:06;;;;;;;5.30;3.20;;;37.90;1.00;;;;;;5048312;28;20274;-49
2022/07/25 09:14:41;;;;;;;3.85;3.10;;;37.90;1.00;;;;;;5067195;28;20020;-47
2022/07/25 09:17:06;;;;;;;3.45;3.17;;;37.70;1.00;;;;;;5048577;28;20052;-47
2022/07/25 09:19:32;;;;;;;4.10;3.70;;;37.40;1.00;;;;;;5069370;28;20492;-46
2022/07/25 09:22:03;;;;;;;3.78;3.47;;;36.90;1.00;;;;;;5049049;28;20319;-51
2022/07/25 09:24:31;;;;;;;4.03;3.50;;;36.50;1.00;;;;;;5069981;28;20036;-47
2022/07/25 09:26:58;;;;;;;4.28;3.38;;;36.30;1.00;;;;;;5048323;28;20100;-46
2022/07/25 09:29:28;;;;;;;3.70;3.38;;;36.40;1.00;;;;;;5069607;28;20067;-47
2022/07/25 09:31:56;;;;;;;3.88;3.58;;;36.60;1.00;;;;;;5048191;28;20021;-49
2022/07/25 09:34:32;;;;;;;4.03;3.50;;;36.70;1.00;;;;;;5069629;28;20036;-48
2022/07/25 09:36:58;;;;;;;4.75;3.55;;;36.60;1.00;;;;;;5046503;28;20260;-47
2022/07/25 09:39:49;;;;;;;6.28;3.33;;;36.70;1.00;;;;;;5069234;28;20091;-51
2022/07/25 09:42:27;;;;;;;4.53;3.58;;;36.80;1.00;;;;;;5029995;28;20519;-48
2022/07/25 09:45:11;;;;;;;4.38;3.60;;;36.80;1.00;;;;;;5067060;28;20039;-47
2022/07/25 09:47:54;;;;;;;4.17;3.47;;;36.80;1.00;;;;;;5068632;28;20509;-48
2022/07/25 09:50:21;;;;;;;3.92;3.53;;;37.00;1.00;;;;;;5051955;28;20028;-47
2022/07/25 09:52:47;;;;;;;4.05;3.75;;;37.10;1.00;;;;;;5069748;28;20174;-49
2022/07/25 09:55:14;;;;;;;6.18;4.18;;;37.20;1.00;;;;;;5051259;28;20123;-49
2022/07/25 09:57:40;;;;;;;5.43;4.57;;;36.80;1.00;;;;;;5069468;28;20028;-47
2022/07/25 10:00:07;;;;;;;11.88;4.13;;;36.60;1.00;;;;;;5049862;28;20032;-61
2022/07/25 10:02:59;;;;;;;4.75;4.35;;;36.40;1.00;;;;;;5069675;28;20020;-63
2022/07/25 10:05:43;;;;;;;4.88;4.03;;;36.30;1.00;;;;;;5036422;28;20036;-62
2022/07/25 10:08:10;;;;;;;4.68;4.35;;;36.40;1.00;;;;;;5069702;28;20502;-63
2022/07/25 10:10:39;;;;;;;4.95;4.55;;;36.10;1.00;;;;;;5053642;28;20078;-63
2022/07/25 10:13:09;;;;;;;4.45;4.05;;;35.90;1.00;;;;;;5064325;28;20021;-62
2022/07/25 10:15:51;;;;;;;4.53;4.15;;;35.80;1.00;;;;;;5052768;28;20073;-63
2022/07/25 10:18:23;;;;;;;4.78;4.38;;;35.60;1.00;;;;;;5069181;28;20021;-63
2022/07/25 10:20:51;;;;;;;5.00;4.60;;;35.40;1.00;;;;;;5041947;28;20035;-63
2022/07/25 10:23:18;;;;;;;5.35;4.78;;;35.20;1.00;;;;;;5069080;28;20025;-64
2022/07/25 10:25:44;;;;;;;4.78;4.35;;;35.00;1.00;;;;;;5053930;28;20047;-63
2022/07/25 10:28:11;;;;;;;5.95;5.32;;;35.00;1.00;;;;;;5069105;28;20028;-63
2022/07/25 10:30:39;;;;;;;5.55;4.90;;;34.80;1.00;;;;;;5052607;28;20107;-63
2022/07/25 10:33:11;;;;;;;5.82;5.22;;;34.40;1.00;;;;;;5068925;28;20066;-63
2022/07/25 10:35:37;;;;;;;6.97;5.38;;;34.20;1.00;;;;;;5037377;28;20060;-63
2022/07/25 10:38:04;;;;;;;5.47;4.97;;;33.90;1.00;;;;;;5068194;28;20056;-63
2022/07/25 10:40:36;;;;;;;7.32;4.80;;;34.00;1.00;;;;;;5051076;28;20120;-62
2022/07/25 10:43:19;;;;;;;4.97;4.50;;;34.10;1.00;;;;;;5068606;28;20036;-63
2022/07/25 10:45:51;;;;;;;5.55;4.65;;;34.30;1.00;;;;;;5038897;28;20257;-63
2022/07/25 10:48:26;;;;;;;7.05;5.22;;;34.40;1.00;;;;;;5061886;28;20049;-62
2022/07/25 10:51:14;;;;;;;7.57;4.75;;;34.40;1.00;;;;;;5053685;28;20075;-63
2022/07/25 10:53:48;;;;;;;5.05;4.55;;;34.30;1.00;;;;;;5068511;28;20040;-63
2022/07/25 10:56:20;;;;;;;5.10;4.55;;;34.00;1.00;;;;;;5046047;28;20392;-63
2022/07/25 10:58:49;;;;;;;4.82;4.43;;;34.20;1.00;;;;;;5048187;28;20024;-63
2022/07/25 11:01:20;;;;;;;6.03;5.07;;;34.30;1.00;;;;;;5066134;28;20211;-63
2022/07/25 11:03:46;;;;;;;6.63;5.32;;;34.40;1.00;;;;;;5028468;28;20033;-63
2022/07/25 11:06:13;;;;;;;6.20;5.70;;;34.30;1.00;;;;;;5065044;28;20028;-63
2022/07/25 11:08:40;;;;;;;7.13;5.55;;;34.40;1.00;;;;;;5048567;28;20021;-63
2022/07/25 11:11:06;;;;;;;6.65;5.90;;;34.40;1.00;;;;;;5065760;28;20335;-63
2022/07/25 11:13:39;;;;;;;6.00;5.50;;;34.30;1.00;;;;;;5050219;28;20227;-63
2022/07/25 11:16:05;;;;;;;10.57;6.38;;;34.30;1.00;;;;;;5064937;28;20024;-63
2022/07/25 11:18:33;;;;;;;6.65;5.97;;;34.30;1.00;;;;;;5048486;28;20025;-62
2022/07/25 11:21:00;;;;;;;7.50;6.80;;;34.20;1.00;;;;;;5065693;28;20040;-63
2022/07/25 11:23:25;;;;;;;6.63;6.03;;;34.30;1.00;;;;;;5068104;28;20031;-62
2022/07/25 11:25:50;;;;;;;6.80;5.97;;;34.20;1.00;;;;;;5052466;28;20024;-62
2022/07/25 11:28:16;;;;;;;6.30;5.70;;;34.40;1.00;;;;;;5068136;28;20089;-62
2022/07/25 11:30:41;;;;;;;7.40;5.13;;;34.50;1.00;;;;;;5050979;28;20028;-63
2022/07/25 11:33:07;;;;;;;7.35;5.68;;;34.60;1.00;;;;;;5068176;28;20552;-62
2022/07/25 11:35:32;;;;;;;6.35;5.75;;;34.60;1.00;;;;;;5049471;28;20024;-62
2022/07/25 11:38:01;;;;;;;6.28;5.55;;;34.70;1.00;;;;;;5068049;28;20032;-63
2022/07/25 11:40:27;;;;;;;6.28;5.68;;;34.70;1.00;;;;;;5048019;28;20040;-62
2022/07/25 11:42:56;;;;;;;6.47;5.78;;;34.70;1.00;;;;;;5066771;28;20312;-62
2022/07/25 11:45:24;;;;;;;7.47;6.63;;;34.70;1.00;;;;;;5047110;28;20021;-63
2022/07/25 11:48:06;;;;;;;5.93;5.43;;;34.70;1.00;;;;;;5064751;28;20041;-63
2022/07/25 11:50:34;;;;;;;6.28;5.45;;;34.80;1.00;;;;;;5051797;28;20025;-62
2022/07/25 11:53:02;;;;;;;7.05;6.07;;;34.80;1.00;;;;;;5072185;28;20021;-63
2022/07/25 11:55:30;;;;;;;9.63;5.97;;;34.90;1.00;;;;;;5052017;28;20028;-62
2022/07/25 11:57:59;;;;;;;7.05;6.45;;;34.80;1.00;;;;;;5071995;28;20111;-62
2022/07/25 12:00:25;;;;;;;8.93;6.28;;;34.70;1.00;;;;;;5049835;28;20116;-62
2022/07/25 12:02:51;;;;;;;6.18;5.25;;;34.70;1.00;;;;;;5072030;28;20403;-63
2022/07/25 12:05:20;;;;;;;8.15;6.13;;;34.80;1.00;;;;;;5052360;28;20029;-62
2022/07/25 12:07:48;;;;;;;6.75;6.05;;;34.80;1.00;;;;;;5030470;28;20029;-62
2022/07/25 12:10:22;;;;;;;5.75;5.25;;;34.90;1.00;;;;;;5070894;28;20073;-62
2022/07/25 12:12:53;;;;;;;7.07;5.63;;;34.90;1.00;;;;;;5031795;28;20036;-62
2022/07/25 12:15:20;;;;;;;7.38;5.68;;;34.90;1.00;;;;;;5024774;28;20502;-63
2022/07/25 12:17:46;;;;;;;8.73;6.15;;;34.90;1.00;;;;;;5031905;28;20065;-62
2022/07/25 12:20:17;;;;;;;6.57;5.97;;;34.80;1.00;;;;;;5070202;28;20047;-62
2022/07/25 12:22:43;;;;;;;6.47;5.88;;;34.80;1.00;;;;;;5044730;28;20029;-62
2022/07/25 12:25:10;;;;;;;6.78;5.95;;;34.80;1.00;;;;;;5070062;28;20060;-63
2022/07/25 12:27:36;;;;;;;6.85;6.15;;;34.70;1.00;;;;;;5049816;28;20064;-63
2022/07/25 12:30:03;;;;;;;8.10;6.82;;;34.80;1.00;;;;;;5070854;28;20121;-63
2022/07/25 12:32:29;;;;;;;6.72;6.13;;;34.70;1.00;;;;;;5048332;28;20382;-62
2022/07/25 12:34:54;;;;;;;6.20;5.50;;;34.70;1.00;;;;;;5070514;28;20017;-62
2022/07/25 12:37:20;;;;;;;6.45;5.85;;;34.70;1.00;;;;;;5049964;28;20110;-62
2022/07/25 12:39:46;;;;;;;7.18;6.47;;;34.70;1.00;;;;;;5070443;28;20027;-62
2022/07/25 12:42:11;;;;;;;6.82;6.10;;;34.50;1.00;;;;;;5049736;28;20040;-62
2022/07/25 12:44:37;;;;;;;6.15;5.55;;;34.40;1.00;;;;;;5070073;28;20028;-62
2022/07/25 12:47:02;;;;;;;7.40;5.50;;;34.40;1.00;;;;;;5049716;28;20029;-62
2022/07/25 12:49:28;;;;;;;6.10;5.50;;;34.50;1.00;;;;;;5070023;28;20245;-62
2022/07/25 12:51:53;;;;;;;5.85;4.88;;;34.60;1.00;;;;;;5049800;28;20059;-62
2022/07/25 12:54:20;;;;;;;5.40;5.00;;;34.60;1.00;;;;;;5070057;28;20040;-62